Time;durP1;ratioP1;P1;durP2;ratioP2;P2;SDS_P1;SDS_P2;PMS_P1;PMS_P2;Temp;Humidity;BMP_temperature;BMP_pressure;BME280_temperature;BME280_humidity;BME280_pressure;Samples;Min_cycle;Max_cycle;Signal;HPM_P1;HPM_P2
2024/04/10 00:00:51;;;;;;;8.02;3.60;;;13.60;99.90;;;;;;5400669;26;20022;-72
2024/04/10 00:03:16;;;;;;;5.68;3.25;;;13.50;99.90;;;;;;5399141;26;20058;-72
2024/04/10 00:06:05;;;;;;;6.20;3.10;;;13.50;99.90;;;;;;5399637;26;20461;-72
2024/04/10 00:08:35;;;;;;;6.40;3.38;;;13.60;99.90;;;;;;5400279;26;20011;-72
2024/04/10 00:11:01;;;;;;;10.52;3.53;;;13.80;99.90;;;;;;5399892;26;20433;-72
2024/04/10 00:13:30;;;;;;;7.85;3.05;;;13.70;99.90;;;;;;5398686;26;20413;-73
2024/04/10 00:16:07;;;;;;;6.60;3.25;;;13.60;99.90;;;;;;5400314;26;20122;-72
2024/04/10 00:18:35;;;;;;;14.60;5.25;;;13.50;99.90;;;;;;5399304;26;20018;-72
2024/04/10 00:21:01;;;;;;;13.15;3.72;;;13.40;99.90;;;;;;5400477;26;20018;-72
2024/04/10 00:23:27;;;;;;;5.75;3.22;;;13.50;99.90;;;;;;5400604;26;20019;-72
2024/04/10 00:26:00;;;;;;;5.10;3.10;;;13.50;99.90;;;;;;5400634;26;20031;-72
2024/04/10 00:28:28;;;;;;;7.40;4.18;;;13.40;99.90;;;;;;5400169;26;20015;-72
2024/04/10 00:30:54;;;;;;;5.43;3.38;;;13.40;99.90;;;;;;5400116;26;19999;-72
2024/04/10 00:33:20;;;;;;;6.45;3.10;;;13.50;99.90;;;;;;5399526;26;20118;-72
2024/04/10 00:36:00;;;;;;;10.88;3.45;;;13.60;99.90;;;;;;5400689;26;20007;-72
2024/04/10 00:38:27;;;;;;;8.55;3.83;;;13.60;99.90;;;;;;5399570;26;20004;-72
2024/04/10 00:41:02;;;;;;;9.50;4.13;;;13.70;99.90;;;;;;5400267;26;20019;-72
2024/04/10 00:43:28;;;;;;;12.48;4.65;;;13.70;99.90;;;;;;5400095;26;20121;-72
2024/04/10 00:46:08;;;;;;;7.35;5.03;;;13.60;99.90;;;;;;5399441;26;20007;-72
2024/04/10 00:48:38;;;;;;;7.00;5.03;;;13.40;99.90;;;;;;5400326;26;20007;-72
2024/04/10 00:51:07;;;;;;;8.30;4.53;;;13.30;99.90;;;;;;5400017;26;20479;-72
2024/04/10 00:53:34;;;;;;;7.03;4.82;;;13.30;99.90;;;;;;5400422;26;20018;-72
2024/04/10 00:56:03;;;;;;;10.18;4.45;;;13.40;99.90;;;;;;5400672;26;20394;-72
2024/04/10 00:58:39;;;;;;;9.43;3.90;;;13.40;99.90;;;;;;5399567;26;20635;-72
2024/04/10 01:01:05;;;;;;;6.80;3.05;;;13.50;99.90;;;;;;5399642;26;20008;-72
2024/04/10 01:03:32;;;;;;;8.43;3.92;;;13.60;99.90;;;;;;5399342;26;20004;-72
2024/04/10 01:06:08;;;;;;;8.48;4.60;;;13.60;99.90;;;;;;5399273;26;20022;-71
2024/04/10 01:08:35;;;;;;;7.05;4.15;;;13.60;99.90;;;;;;5399243;26;20018;-72
2024/04/10 01:11:03;;;;;;;9.57;4.88;;;13.50;99.90;;;;;;5398311;26;20472;-72
2024/04/10 01:13:29;;;;;;;8.52;4.97;;;13.40;99.90;;;;;;5391617;26;21543;-72
2024/04/10 01:15:55;;;;;;;7.10;4.40;;;13.50;99.90;;;;;;5396356;26;20015;-71
2024/04/10 01:18:21;;;;;;;8.32;5.13;;;13.40;99.90;;;;;;5397504;26;20011;-72
2024/04/10 01:20:48;;;;;;;9.50;5.38;;;13.40;99.90;;;;;;5398297;26;20004;-72
2024/04/10 01:23:15;;;;;;;9.10;4.43;;;13.50;99.90;;;;;;5396615;26;20006;-72
2024/04/10 01:25:41;;;;;;;9.23;4.68;;;13.50;99.90;;;;;;5397977;26;19999;-71
2024/04/10 01:28:07;;;;;;;8.35;4.80;;;13.50;99.90;;;;;;5399344;26;20031;-72
2024/04/10 01:30:33;;;;;;;9.48;4.38;;;13.40;99.90;;;;;;5399120;26;20004;-72
2024/04/10 01:32:59;;;;;;;7.97;4.70;;;13.40;99.90;;;;;;5398826;26;20110;-72
2024/04/10 01:35:25;;;;;;;6.28;3.95;;;13.40;99.90;;;;;;5398066;26;20007;-72
2024/04/10 01:37:50;;;;;;;9.20;5.10;;;13.40;99.90;;;;;;5398317;26;20007;-72
2024/04/10 01:40:16;;;;;;;6.15;3.80;;;13.50;99.90;;;;;;5398695;26;20357;-72
2024/04/10 01:42:45;;;;;;;9.43;4.10;;;13.50;99.90;;;;;;5399084;26;20018;-72
2024/04/10 01:45:12;;;;;;;9.45;4.50;;;13.50;99.90;;;;;;5398996;26;20007;-72
2024/04/10 01:47:38;;;;;;;8.07;3.88;;;13.40;99.90;;;;;;5399160;26;20022;-72
2024/04/10 01:50:04;;;;;;;10.13;4.40;;;13.30;99.90;;;;;;5397781;26;20018;-72
2024/04/10 01:52:30;;;;;;;8.38;4.65;;;13.50;99.90;;;;;;5398443;26;20000;-72
2024/04/10 01:54:55;;;;;;;7.95;4.40;;;13.50;99.90;;;;;;5397810;26;20379;-72
2024/04/10 01:57:22;;;;;;;7.82;4.13;;;13.30;99.90;;;;;;5398156;26;20015;-72
2024/04/10 01:59:48;;;;;;;8.10;5.03;;;13.30;99.90;;;;;;5398948;26;20349;-72
2024/04/10 02:02:13;;;;;;;6.70;3.85;;;13.30;99.90;;;;;;5397972;26;20869;-72
2024/04/10 02:04:39;;;;;;;7.90;3.78;;;13.30;99.90;;;;;;5398826;26;20011;-72
2024/04/10 02:07:05;;;;;;;6.68;3.88;;;13.30;99.90;;;;;;5397498;26;20014;-72
2024/04/10 02:09:31;;;;;;;12.20;4.68;;;13.30;99.90;;;;;;5397342;26;20454;-72
2024/04/10 02:11:57;;;;;;;7.90;3.38;;;13.30;99.90;;;;;;5397126;26;20057;-72
2024/04/10 02:14:23;;;;;;;5.72;3.33;;;13.40;99.90;;;;;;5397700;26;20007;-72
2024/04/10 02:16:48;;;;;;;7.97;3.53;;;13.40;99.90;;;;;;5398470;26;20022;-72
2024/04/10 02:19:14;;;;;;;10.38;3.55;;;13.40;99.90;;;;;;5398345;26;19999;-72
2024/04/10 02:21:40;;;;;;;9.75;3.88;;;13.50;99.90;;;;;;5396821;26;20012;-72
2024/04/10 02:24:08;;;;;;;7.10;3.33;;;13.60;99.90;;;;;;5396969;26;20031;-72
2024/04/10 02:26:34;;;;;;;7.47;3.70;;;13.60;99.90;;;;;;5397039;26;20004;-72
2024/04/10 02:28:59;;;;;;;8.10;3.40;;;13.40;99.90;;;;;;5397664;26;20003;-72
2024/04/10 02:31:25;;;;;;;8.35;3.42;;;13.30;99.90;;;;;;5397757;26;20007;-72
2024/04/10 02:33:51;;;;;;;6.85;2.78;;;13.30;99.90;;;;;;5398039;26;20062;-72
2024/04/10 02:36:17;;;;;;;11.25;3.05;;;13.20;99.90;;;;;;5397373;26;20031;-72
2024/04/10 02:38:43;;;;;;;6.55;2.70;;;13.10;99.90;;;;;;5397531;26;20015;-72
2024/04/10 02:41:09;;;;;;;3.33;1.70;;;13.10;99.90;;;;;;5397613;26;20456;-72
2024/04/10 02:43:35;;;;;;;4.20;1.48;;;13.00;99.90;;;;;;5397253;26;20039;-72
2024/04/10 02:46:02;;;;;;;5.70;1.52;;;12.80;99.90;;;;;;5397453;26;20007;-73
2024/04/10 02:48:28;;;;;;;1.67;1.00;;;12.70;99.90;;;;;;5397712;26;20016;-72
2024/04/10 02:50:55;;;;;;;3.97;1.00;;;12.50;99.90;;;;;;5397369;26;20007;-72
2024/04/10 02:53:21;;;;;;;1.45;0.50;;;12.30;99.90;;;;;;5397515;26;20031;-72
2024/04/10 02:55:51;;;;;;;1.40;0.57;;;12.20;99.90;;;;;;5397913;26;20007;-72
2024/04/10 02:58:17;;;;;;;5.22;0.60;;;12.20;99.90;;;;;;5397521;26;20032;-72
2024/04/10 03:00:50;;;;;;;2.47;0.38;;;12.00;99.90;;;;;;5397019;26;20000;-72
2024/04/10 03:03:16;;;;;;;1.08;0.30;;;12.00;99.90;;;;;;5395685;26;20018;-73
2024/04/10 03:05:44;;;;;;;1.70;0.43;;;11.70;99.90;;;;;;5393837;26;19995;-72
2024/04/10 03:08:10;;;;;;;1.75;0.43;;;11.60;99.90;;;;;;5394219;26;20232;-73
2024/04/10 03:10:36;;;;;;;1.27;0.00;;;11.60;99.90;;;;;;5394330;26;20458;-72
2024/04/10 03:13:02;;;;;;;0.32;0.20;;;11.50;99.90;;;;;;5393501;26;20017;-72
2024/04/10 03:15:27;;;;;;;2.10;0.30;;;11.30;99.90;;;;;;5394163;26;20461;-73
2024/04/10 03:17:53;;;;;;;0.10;0.10;;;11.20;99.90;;;;;;5390194;26;20465;-72
2024/04/10 03:20:22;;;;;;;1.10;0.13;;;11.00;99.90;;;;;;5389633;26;20015;-72
2024/04/10 03:22:48;;;;;;;0.50;0.20;;;11.10;99.90;;;;;;5391224;26;20133;-72
2024/04/10 03:25:15;;;;;;;1.02;0.30;;;11.20;99.90;;;;;;5392792;26;20003;-73
2024/04/10 03:27:41;;;;;;;0.10;0.10;;;11.20;99.90;;;;;;5393953;26;20011;-72
2024/04/10 03:30:07;;;;;;;0.65;0.10;;;11.10;99.90;;;;;;5393495;26;20007;-72
2024/04/10 03:32:33;;;;;;;0.80;0.43;;;11.20;99.90;;;;;;5393562;26;20044;-72
2024/04/10 03:34:59;;;;;;;1.02;0.20;;;11.00;99.90;;;;;;5393889;26;20581;-72
2024/04/10 03:37:25;;;;;;;0.15;0.00;;;11.00;99.90;;;;;;5391985;26;20080;-72
2024/04/10 03:39:51;;;;;;;1.00;0.10;;;11.20;99.90;;;;;;5386482;26;20033;-72
2024/04/10 03:42:18;;;;;;;3.47;0.40;;;11.10;99.90;;;;;;5390526;26;20011;-72
2024/04/10 03:44:43;;;;;;;2.22;0.20;;;11.00;99.90;;;;;;5394033;26;20027;-72
2024/04/10 03:47:09;;;;;;;2.08;0.10;;;10.80;99.90;;;;;;5393492;26;20511;-72
2024/04/10 03:49:35;;;;;;;0.60;0.15;;;11.00;99.90;;;;;;5394100;26;20000;-72
2024/04/10 03:52:00;;;;;;;3.55;0.20;;;11.10;99.90;;;;;;5393555;26;20000;-72
2024/04/10 03:54:26;;;;;;;0.20;0.08;;;11.00;99.90;;;;;;5393367;26;20663;-72
2024/04/10 03:56:53;;;;;;;1.75;0.10;;;11.10;99.90;;;;;;5393904;26;20004;-72
2024/04/10 03:59:19;;;;;;;0.00;0.00;;;11.20;99.90;;;;;;5388974;26;20011;-72
2024/04/10 04:01:45;;;;;;;0.43;0.10;;;11.30;99.90;;;;;;5389340;26;20010;-73
2024/04/10 04:04:11;;;;;;;0.55;0.10;;;11.20;99.90;;;;;;5389564;26;20007;-72
2024/04/10 04:06:37;;;;;;;0.25;0.10;;;11.40;99.90;;;;;;5390680;26;20495;-72
2024/04/10 04:09:02;;;;;;;0.17;0.00;;;11.20;99.90;;;;;;5391499;26;20022;-73
2024/04/10 04:11:28;;;;;;;1.95;0.10;;;11.10;99.90;;;;;;5389872;26;20004;-73
2024/04/10 04:13:54;;;;;;;0.17;0.00;;;11.10;99.90;;;;;;5389485;26;20011;-72
2024/04/10 04:16:20;;;;;;;0.63;0.10;;;11.10;99.90;;;;;;5388745;26;20003;-72
2024/04/10 04:18:45;;;;;;;0.28;0.00;;;11.10;99.90;;;;;;5389713;26;20007;-73
2024/04/10 04:21:11;;;;;;;0.70;0.20;;;11.10;99.90;;;;;;5388109;26;20508;-72
2024/04/10 04:23:37;;;;;;;0.63;0.20;;;11.20;99.90;;;;;;5388046;26;20003;-72
2024/04/10 04:26:03;;;;;;;1.63;0.10;;;11.20;99.90;;;;;;5388542;26;20011;-72
2024/04/10 04:28:29;;;;;;;1.15;0.10;;;11.10;99.90;;;;;;5388574;26;20774;-72
2024/04/10 04:30:55;;;;;;;1.65;0.73;;;11.30;99.90;;;;;;5389135;26;20011;-72
2024/04/10 04:33:21;;;;;;;0.60;0.30;;;11.20;99.90;;;;;;5389804;26;19996;-72
2024/04/10 04:35:47;;;;;;;1.05;0.47;;;11.40;99.90;;;;;;5389549;26;20043;-72
2024/04/10 04:38:13;;;;;;;1.88;0.40;;;11.40;99.90;;;;;;5388441;26;20015;-72
2024/04/10 04:40:38;;;;;;;0.28;0.13;;;11.50;99.90;;;;;;5389349;26;20008;-72
2024/04/10 04:43:10;;;;;;;0.55;0.20;;;11.50;99.90;;;;;;5388795;26;20353;-72
2024/04/10 04:45:37;;;;;;;0.95;0.38;;;11.10;99.90;;;;;;5387887;26;20015;-72
2024/04/10 04:48:04;;;;;;;0.00;0.00;;;11.10;99.90;;;;;;5388180;26;20547;-73
2024/04/10 04:50:30;;;;;;;1.38;0.35;;;11.10;99.90;;;;;;5388336;26;20493;-72
2024/04/10 04:52:55;;;;;;;1.45;0.40;;;10.90;99.90;;;;;;5389136;26;20057;-74
2024/04/10 04:55:21;;;;;;;1.00;0.20;;;10.60;99.90;;;;;;5389668;26;20591;-72
2024/04/10 04:57:47;;;;;;;2.08;0.80;;;10.70;99.90;;;;;;5389522;26;20007;-72
2024/04/10 05:00:14;;;;;;;1.08;0.20;;;10.90;99.90;;;;;;5388967;26;20008;-74
2024/04/10 05:02:43;;;;;;;1.73;0.60;;;11.00;99.90;;;;;;5388146;26;20018;-72
2024/04/10 05:05:21;;;;;;;2.33;0.40;;;11.30;99.90;;;;;;5389519;26;20010;-73
2024/04/10 05:07:48;;;;;;;2.88;0.22;;;11.00;99.90;;;;;;5389101;26;19999;-72
2024/04/10 05:10:15;;;;;;;1.17;0.10;;;11.00;99.90;;;;;;5388675;26;20007;-72
2024/04/10 05:12:41;;;;;;;0.13;0.00;;;10.70;99.90;;;;;;5389168;26;20015;-72
2024/04/10 05:15:11;;;;;;;0.60;0.10;;;10.70;99.90;;;;;;5389605;26;20101;-72
2024/04/10 05:17:44;;;;;;;0.35;0.15;;;10.90;99.90;;;;;;5390063;26;20011;-72
2024/04/10 05:20:12;;;;;;;4.38;0.80;;;11.10;99.90;;;;;;5387000;26;20023;-72
2024/04/10 05:22:42;;;;;;;2.22;0.47;;;11.10;99.90;;;;;;5387360;26;20007;-72
2024/04/10 05:25:09;;;;;;;0.17;0.10;;;11.10;99.90;;;;;;5388101;26;20035;-72
2024/04/10 05:27:37;;;;;;;0.10;0.10;;;11.10;99.90;;;;;;5388014;26;20031;-72
2024/04/10 05:30:08;;;;;;;3.05;0.90;;;11.20;99.90;;;;;;5389358;26;20007;-72
2024/04/10 05:32:40;;;;;;;3.85;1.20;;;11.20;99.90;;;;;;5389421;26;20022;-72
2024/04/10 05:35:09;;;;;;;3.88;0.60;;;11.20;99.90;;;;;;5388356;26;20022;-72
2024/04/10 05:37:35;;;;;;;2.17;0.20;;;11.00;99.90;;;;;;5388141;26;20077;-72
2024/04/10 05:40:06;;;;;;;2.28;0.30;;;10.90;99.90;;;;;;5388405;26;20007;-73
2024/04/10 05:42:39;;;;;;;0.90;0.20;;;10.80;99.90;;;;;;5388754;26;20008;-72
2024/04/10 05:45:09;;;;;;;0.52;0.25;;;10.80;99.90;;;;;;5388653;26;20010;-72
2024/04/10 05:47:39;;;;;;;0.40;0.03;;;10.70;99.90;;;;;;5388714;26;20410;-72
2024/04/10 05:50:09;;;;;;;3.72;1.30;;;10.80;99.90;;;;;;5388421;26;19999;-73
2024/04/10 05:52:35;;;;;;;1.08;0.47;;;10.90;99.90;;;;;;5388764;26;20544;-72
2024/04/10 05:55:01;;;;;;;0.25;0.17;;;10.80;99.90;;;;;;5388808;26;20079;-73
2024/04/10 05:57:27;;;;;;;0.47;0.13;;;10.80;99.90;;;;;;5389752;26;20004;-72
2024/04/10 05:59:54;;;;;;;0.55;0.15;;;10.60;99.90;;;;;;5388815;26;20014;-72
2024/04/10 06:02:20;;;;;;;1.45;0.08;;;10.60;99.90;;;;;;5388375;26;20007;-73
2024/04/10 06:04:46;;;;;;;0.65;0.10;;;10.60;99.90;;;;;;5388739;26;20019;-73
2024/04/10 06:07:12;;;;;;;0.65;0.30;;;10.60;99.90;;;;;;5389058;26;20415;-73
2024/04/10 06:09:37;;;;;;;0.73;0.13;;;10.00;99.90;;;;;;5389354;26;20374;-73
2024/04/10 06:12:03;;;;;;;0.52;0.20;;;10.10;99.90;;;;;;5388335;26;20011;-73
2024/04/10 06:14:29;;;;;;;2.17;0.05;;;10.30;99.90;;;;;;5387423;26;20008;-73
2024/04/10 06:16:54;;;;;;;0.15;0.10;;;10.40;99.90;;;;;;5388363;26;20008;-73
2024/04/10 06:19:20;;;;;;;0.10;0.10;;;10.30;99.90;;;;;;5388643;26;20000;-72
2024/04/10 06:21:46;;;;;;;0.00;0.00;;;10.30;99.90;;;;;;5387779;26;20027;-72
2024/04/10 06:24:13;;;;;;;0.85;0.20;;;10.20;99.90;;;;;;5386654;26;20004;-72
2024/04/10 06:26:39;;;;;;;0.13;0.00;;;10.40;99.90;;;;;;5387137;26;20018;-72
2024/04/10 06:29:05;;;;;;;1.52;0.50;;;10.50;99.90;;;;;;5388392;26;20511;-72
2024/04/10 06:31:30;;;;;;;1.90;0.90;;;10.50;99.90;;;;;;5387865;26;20000;-72
2024/04/10 06:33:56;;;;;;;5.68;3.70;;;10.50;99.90;;;;;;5387668;26;20008;-73
2024/04/10 06:36:22;;;;;;;4.47;2.45;;;10.40;99.90;;;;;;5388578;26;20021;-72
2024/04/10 06:38:47;;;;;;;1.52;0.68;;;10.50;99.90;;;;;;5390098;26;20003;-72
2024/04/10 06:41:13;;;;;;;1.42;0.68;;;10.40;99.90;;;;;;5390145;26;20015;-73
2024/04/10 06:43:39;;;;;;;2.65;1.65;;;10.30;99.90;;;;;;5390745;26;20050;-72
2024/04/10 06:46:09;;;;;;;1.35;0.57;;;10.30;99.90;;;;;;5390524;26;19995;-72
2024/04/10 06:48:35;;;;;;;0.35;0.10;;;10.30;99.90;;;;;;5391580;26;20034;-72
2024/04/10 06:51:02;;;;;;;1.13;0.20;;;10.30;99.90;;;;;;5391855;26;20474;-72
2024/04/10 06:53:28;;;;;;;0.17;0.05;;;10.20;99.90;;;;;;5391500;26;20010;-73
2024/04/10 06:55:59;;;;;;;1.00;0.55;;;10.40;99.90;;;;;;5391872;26;20418;-73
2024/04/10 06:58:26;;;;;;;0.60;0.25;;;10.40;99.90;;;;;;5390943;26;20047;-73
2024/04/10 07:01:03;;;;;;;0.35;0.10;;;10.30;99.90;;;;;;5393388;26;20532;-73
2024/04/10 07:03:33;;;;;;;0.15;0.05;;;10.30;99.90;;;;;;5393577;26;20102;-73
2024/04/10 07:06:05;;;;;;;0.73;0.15;;;10.50;99.90;;;;;;5390759;26;20107;-74
2024/04/10 07:08:32;;;;;;;2.05;0.38;;;10.40;99.90;;;;;;5389651;26;19999;-73
2024/04/10 07:10:57;;;;;;;0.20;0.10;;;10.40;99.90;;;;;;5390015;26;20010;-74
2024/04/10 07:13:26;;;;;;;2.25;0.30;;;10.60;99.90;;;;;;5390135;26;20008;-74
2024/04/10 07:15:59;;;;;;;1.13;0.20;;;10.60;99.90;;;;;;5389958;26;20004;-74
2024/04/10 07:18:29;;;;;;;0.10;0.05;;;10.50;99.90;;;;;;5390666;26;20464;-73
2024/04/10 07:21:04;;;;;;;0.55;0.10;;;10.60;99.90;;;;;;5390573;26;20015;-73
2024/04/10 07:23:31;;;;;;;0.00;0.00;;;10.60;99.90;;;;;;5390279;26;20007;-73
2024/04/10 07:26:19;;;;;;;0.30;0.00;;;10.70;99.90;;;;;;5390075;26;20007;-74
2024/04/10 07:28:53;;;;;;;0.20;0.00;;;10.60;99.90;;;;;;5389839;26;20010;-73
2024/04/10 07:31:31;;;;;;;0.40;0.30;;;10.80;99.90;;;;;;5390784;26;20101;-73
2024/04/10 07:33:57;;;;;;;0.75;0.47;;;10.60;99.90;;;;;;5390037;26;20012;-73
2024/04/10 07:36:24;;;;;;;0.88;0.15;;;10.70;99.90;;;;;;5389741;26;20063;-73
2024/04/10 07:38:53;;;;;;;0.60;0.25;;;10.70;99.90;;;;;;5389064;26;20595;-74
2024/04/10 07:41:19;;;;;;;3.53;0.47;;;10.50;99.90;;;;;;5389968;26;20019;-73
2024/04/10 07:43:45;;;;;;;1.00;0.38;;;10.70;99.90;;;;;;5389828;26;20065;-74
2024/04/10 07:46:15;;;;;;;2.38;0.20;;;10.90;99.90;;;;;;5390994;26;20003;-73
2024/04/10 07:48:43;;;;;;;0.52;0.10;;;11.00;99.90;;;;;;5388823;26;20024;-73
2024/04/10 07:51:10;;;;;;;0.75;0.20;;;10.80;99.90;;;;;;5387636;26;20080;-74
2024/04/10 07:53:38;;;;;;;0.30;0.10;;;10.80;99.90;;;;;;5384248;26;20070;-74
2024/04/10 07:56:04;;;;;;;1.25;0.10;;;10.80;99.90;;;;;;5373820;26;20521;-73
2024/04/10 07:58:31;;;;;;;0.82;0.17;;;10.70;99.90;;;;;;5389020;26;20512;-73
2024/04/10 08:00:59;;;;;;;1.50;0.20;;;10.90;99.90;;;;;;5389248;26;21523;-73
2024/04/10 08:03:25;;;;;;;0.00;0.00;;;10.80;99.90;;;;;;5389289;26;19996;-73
2024/04/10 08:05:58;;;;;;;0.63;0.10;;;10.70;99.90;;;;;;5388870;26;20366;-74
2024/04/10 08:08:25;;;;;;;0.50;0.30;;;10.70;99.90;;;;;;5388510;26;20084;-74
2024/04/10 08:11:01;;;;;;;3.15;0.30;;;10.70;99.90;;;;;;5389456;26;20012;-73
2024/04/10 08:13:28;;;;;;;1.05;0.45;;;10.80;99.90;;;;;;5388488;26;20023;-74
2024/04/10 08:16:01;;;;;;;0.52;0.40;;;10.90;99.90;;;;;;5388170;26;20018;-73
2024/04/10 08:18:30;;;;;;;1.55;0.25;;;10.90;99.90;;;;;;5390025;26;19999;-73
2024/04/10 08:21:03;;;;;;;0.98;0.10;;;11.00;99.90;;;;;;5389513;26;20511;-74
2024/04/10 08:23:30;;;;;;;0.32;0.10;;;10.90;99.90;;;;;;5388994;26;20014;-74
2024/04/10 08:25:56;;;;;;;2.58;0.40;;;10.70;99.90;;;;;;5388714;26;20004;-74
2024/04/10 08:28:24;;;;;;;0.20;0.08;;;10.70;99.90;;;;;;5388505;26;20011;-73
2024/04/10 08:30:54;;;;;;;0.65;0.17;;;10.60;99.90;;;;;;5389112;26;20014;-74
2024/04/10 08:33:20;;;;;;;0.73;0.30;;;10.60;99.90;;;;;;5389129;26;20004;-74
2024/04/10 08:35:59;;;;;;;0.10;0.05;;;10.60;99.90;;;;;;5389476;26;20898;-73
2024/04/10 08:38:25;;;;;;;3.40;0.85;;;10.60;99.90;;;;;;5389503;26;20545;-73
2024/04/10 08:40:53;;;;;;;0.55;0.30;;;10.20;99.90;;;;;;5388158;26;20007;-74
2024/04/10 08:43:22;;;;;;;0.45;0.17;;;10.20;99.90;;;;;;5385164;26;20003;-73
2024/04/10 08:45:49;;;;;;;0.35;0.10;;;10.00;99.90;;;;;;5382677;26;20003;-74
2024/04/10 08:48:19;;;;;;;0.17;0.10;;;10.20;99.90;;;;;;5387669;26;20008;-74
2024/04/10 08:50:49;;;;;;;2.90;0.35;;;10.10;99.90;;;;;;5389213;26;20018;-74
2024/04/10 08:53:16;;;;;;;0.55;0.20;;;10.00;99.90;;;;;;5390258;26;20028;-74
2024/04/10 08:55:42;;;;;;;2.63;0.38;;;9.90;99.90;;;;;;5404723;26;20077;-74
2024/04/10 08:58:08;;;;;;;0.57;0.10;;;10.10;99.90;;;;;;5405013;26;20469;-73
2024/04/10 09:00:42;;;;;;;1.05;0.20;;;10.00;99.90;;;;;;5404740;26;20045;-73
2024/04/10 09:03:09;;;;;;;0.43;0.05;;;9.80;99.90;;;;;;5394930;26;20003;-74
2024/04/10 09:05:34;;;;;;;0.35;0.00;;;9.70;99.90;;;;;;5388201;26;20019;-74
2024/04/10 09:08:00;;;;;;;2.22;0.20;;;9.70;99.90;;;;;;5388448;26;20003;-73
2024/04/10 09:10:26;;;;;;;1.48;0.25;;;9.60;99.90;;;;;;5388434;26;20006;-73
2024/04/10 09:13:13;;;;;;;0.17;0.10;;;9.60;99.90;;;;;;5388493;26;20018;-74
2024/04/10 09:15:39;;;;;;;3.60;0.30;;;9.70;99.90;;;;;;5389358;26;20018;-74
2024/04/10 09:18:06;;;;;;;0.75;0.20;;;9.80;99.90;;;;;;5388435;26;20724;-74
2024/04/10 09:20:35;;;;;;;0.73;0.35;;;9.80;99.90;;;;;;5388430;26;20008;-74
2024/04/10 09:23:05;;;;;;;1.75;0.30;;;9.60;99.90;;;;;;5387871;26;20015;-73
2024/04/10 09:25:35;;;;;;;0.35;0.20;;;9.80;99.90;;;;;;5388156;26;20043;-73
2024/04/10 09:28:05;;;;;;;0.55;0.08;;;9.80;99.90;;;;;;5387540;26;20628;-74
2024/04/10 09:30:35;;;;;;;0.13;0.10;;;9.80;99.90;;;;;;5388144;26;20475;-74
2024/04/10 09:33:02;;;;;;;0.63;0.20;;;9.80;99.90;;;;;;5386795;26;21546;-73
2024/04/10 09:35:29;;;;;;;0.73;0.22;;;9.90;99.90;;;;;;5387801;26;20003;-74
2024/04/10 09:38:01;;;;;;;0.32;0.10;;;9.80;99.90;;;;;;5388193;26;20012;-73
2024/04/10 09:40:28;;;;;;;0.25;0.10;;;9.90;99.90;;;;;;5388210;26;20007;-74
2024/04/10 09:43:04;;;;;;;0.63;0.30;;;9.90;99.90;;;;;;5387949;26;20026;-74
2024/04/10 09:45:37;;;;;;;1.35;0.15;;;9.90;99.90;;;;;;5387428;26;20015;-73
2024/04/10 09:48:06;;;;;;;0.73;0.30;;;10.00;99.90;;;;;;5388134;26;20018;-74
2024/04/10 09:50:38;;;;;;;0.20;0.10;;;10.00;99.90;;;;;;5387489;26;20567;-74
2024/04/10 09:53:05;;;;;;;2.10;0.45;;;9.90;99.90;;;;;;5387942;26;20072;-73
2024/04/10 09:55:38;;;;;;;0.90;0.30;;;10.20;99.90;;;;;;5388821;26;20011;-73
2024/04/10 09:58:05;;;;;;;0.13;0.03;;;10.10;99.90;;;;;;5387160;26;20027;-74
2024/04/10 10:00:32;;;;;;;0.77;0.20;;;10.20;99.90;;;;;;5387375;26;20044;-74
2024/04/10 10:03:08;;;;;;;3.97;0.73;;;10.10;99.90;;;;;;5387727;26;20007;-73
2024/04/10 10:05:35;;;;;;;2.50;0.40;;;10.30;99.90;;;;;;5388366;26;20011;-74
2024/04/10 10:08:04;;;;;;;8.20;4.05;;;10.10;99.90;;;;;;5387372;26;20772;-74
2024/04/10 10:10:41;;;;;;;3.03;1.25;;;10.20;99.90;;;;;;5385673;26;20526;-74
2024/04/10 10:13:07;;;;;;;0.52;0.20;;;10.10;99.90;;;;;;5387384;26;20007;-73
2024/04/10 10:15:33;;;;;;;2.13;1.13;;;9.90;99.90;;;;;;5388031;26;20429;-73
2024/04/10 10:17:59;;;;;;;0.13;0.00;;;9.90;99.90;;;;;;5386364;26;20003;-73
2024/04/10 10:20:24;;;;;;;0.28;0.20;;;9.80;99.90;;;;;;5388285;26;20645;-73
2024/04/10 10:23:03;;;;;;;3.28;1.67;;;9.90;99.90;;;;;;5385560;26;20048;-74
2024/04/10 10:25:29;;;;;;;0.70;0.25;;;9.80;99.90;;;;;;5387039;26;20077;-73
2024/04/10 10:28:06;;;;;;;1.23;0.20;;;9.90;99.90;;;;;;5387482;26;20008;-73
2024/04/10 10:30:32;;;;;;;1.42;0.30;;;10.70;99.90;;;;;;5386706;26;20011;-73
2024/04/10 10:33:05;;;;;;;4.45;1.30;;;10.00;99.90;;;;;;5386734;26;20023;-73
2024/04/10 10:35:31;;;;;;;0.28;0.10;;;10.10;99.90;;;;;;5386791;26;20008;-73
2024/04/10 10:37:58;;;;;;;3.58;0.70;;;10.00;99.90;;;;;;5386799;26;20012;-73
2024/04/10 10:40:24;;;;;;;1.02;0.50;;;9.90;99.90;;;;;;5387003;26;20007;-73
2024/04/10 10:43:07;;;;;;;1.58;0.43;;;9.90;99.90;;;;;;5385853;26;20033;-73
2024/04/10 10:45:34;;;;;;;0.50;0.30;;;9.50;99.90;;;;;;5386640;26;20052;-73
2024/04/10 10:48:04;;;;;;;0.88;0.20;;;9.60;99.90;;;;;;5386817;26;20107;-73
2024/04/10 10:50:33;;;;;;;1.27;0.55;;;9.50;99.90;;;;;;5387946;26;20040;-73
2024/04/10 10:53:02;;;;;;;0.80;0.32;;;9.50;99.90;;;;;;5386234;26;20636;-74
2024/04/10 10:55:27;;;;;;;0.38;0.00;;;9.50;99.90;;;;;;5385676;26;20012;-73
2024/04/10 10:58:15;;;;;;;1.10;0.40;;;9.60;99.90;;;;;;5385251;26;21534;-73
2024/04/10 11:00:40;;;;;;;0.57;0.28;;;9.70;99.90;;;;;;5387036;26;19999;-73
2024/04/10 11:03:07;;;;;;;0.57;0.15;;;9.70;99.90;;;;;;5385655;26;20022;-73
2024/04/10 11:05:33;;;;;;;1.95;1.00;;;9.60;99.90;;;;;;5386464;26;20589;-73
2024/04/10 11:08:00;;;;;;;1.10;0.45;;;9.60;99.90;;;;;;5385694;26;20008;-73
2024/04/10 11:10:30;;;;;;;0.10;0.10;;;9.70;99.90;;;;;;5385600;26;20038;-73
2024/04/10 11:13:08;;;;;;;4.32;0.40;;;9.80;99.90;;;;;;5385158;26;21279;-74
2024/04/10 11:15:49;;;;;;;0.75;0.30;;;9.70;99.90;;;;;;5385618;26;21578;-73
2024/04/10 11:18:20;;;;;;;0.55;0.20;;;9.90;99.90;;;;;;5385834;26;20088;-73
2024/04/10 11:20:47;;;;;;;0.45;0.10;;;9.80;99.90;;;;;;5386486;26;20618;-73
2024/04/10 11:23:13;;;;;;;2.95;1.48;;;9.80;99.90;;;;;;5388457;26;20011;-73
2024/04/10 11:25:39;;;;;;;1.55;0.50;;;10.00;99.90;;;;;;5389997;26;20748;-73
2024/04/10 11:28:05;;;;;;;1.67;0.50;;;10.10;99.90;;;;;;5390537;26;20080;-73
2024/04/10 11:30:32;;;;;;;16.80;9.70;;;9.90;99.90;;;;;;5390508;26;21698;-73
2024/04/10 11:32:58;;;;;;;24.63;15.93;;;10.00;99.90;;;;;;5389491;26;20729;-73
2024/04/10 11:35:24;;;;;;;10.93;5.68;;;10.10;99.90;;;;;;5389735;26;20016;-73
2024/04/10 11:37:55;;;;;;;7.65;6.32;;;10.10;99.90;;;;;;5389587;26;20011;-73
2024/04/10 11:40:22;;;;;;;5.18;3.00;;;10.20;99.90;;;;;;5388791;26;20014;-74
2024/04/10 11:42:48;;;;;;;0.63;0.30;;;10.20;99.90;;;;;;5390408;26;20080;-74
2024/04/10 11:45:14;;;;;;;0.10;0.10;;;10.10;99.90;;;;;;5392974;26;20007;-73
2024/04/10 11:47:43;;;;;;;1.40;0.10;;;10.10;99.90;;;;;;5393116;26;20007;-73
2024/04/10 11:50:11;;;;;;;0.75;0.20;;;10.10;99.90;;;;;;5393702;26;20055;-73
2024/04/10 11:52:40;;;;;;;0.52;0.25;;;10.20;99.90;;;;;;5392644;26;20010;-73
2024/04/10 11:55:07;;;;;;;2.78;0.40;;;10.20;99.90;;;;;;5393094;26;20083;-75
2024/04/10 11:57:33;;;;;;;0.13;0.00;;;10.10;99.90;;;;;;5389867;26;20003;-75
2024/04/10 11:59:59;;;;;;;0.68;0.20;;;10.30;99.90;;;;;;5387309;26;20019;-74
2024/04/10 12:02:25;;;;;;;0.45;0.17;;;10.20;99.90;;;;;;5387672;26;20019;-73
2024/04/10 12:04:54;;;;;;;1.10;0.38;;;10.30;99.90;;;;;;5389250;26;20015;-73
2024/04/10 12:07:20;;;;;;;0.15;0.00;;;10.10;99.90;;;;;;5387652;26;20012;-73
2024/04/10 12:09:46;;;;;;;0.43;0.22;;;10.10;99.90;;;;;;5389576;26;20018;-73
2024/04/10 12:12:12;;;;;;;0.50;0.22;;;10.20;99.90;;;;;;5387411;26;20019;-73
2024/04/10 12:14:41;;;;;;;0.80;0.20;;;10.10;99.90;;;;;;5389070;26;20854;-74
2024/04/10 12:17:07;;;;;;;1.35;0.40;;;10.30;99.90;;;;;;5387455;26;20008;-74
2024/04/10 12:19:33;;;;;;;0.60;0.20;;;10.30;99.90;;;;;;5388646;26;20012;-74
2024/04/10 12:21:58;;;;;;;0.63;0.30;;;10.40;99.90;;;;;;5388886;26;20018;-74
2024/04/10 12:24:24;;;;;;;0.45;0.32;;;10.40;99.90;;;;;;5387868;26;20011;-74
2024/04/10 12:26:49;;;;;;;1.25;0.20;;;10.40;99.90;;;;;;5388054;26;20011;-74
2024/04/10 12:29:15;;;;;;;2.30;0.20;;;10.40;99.90;;;;;;5389022;26;20035;-74
2024/04/10 12:31:41;;;;;;;0.35;0.10;;;10.30;99.90;;;;;;5386759;26;20003;-74
2024/04/10 12:34:08;;;;;;;0.65;0.50;;;10.30;99.90;;;;;;5387463;26;20334;-74
2024/04/10 12:39:18;;;;;;;0.40;0.30;;;10.40;99.90;;;;;;5387717;26;20022;-74
2024/04/10 12:41:49;;;;;;;1.95;0.20;;;10.40;99.90;;;;;;5387104;26;20036;-74
2024/04/10 12:44:19;;;;;;;0.30;0.10;;;10.40;99.90;;;;;;5388099;26;20615;-74
2024/04/10 12:46:53;;;;;;;0.93;0.45;;;10.50;99.90;;;;;;5387843;26;20011;-74
2024/04/10 12:49:23;;;;;;;1.25;0.45;;;10.60;99.90;;;;;;5387697;26;20007;-74
2024/04/10 12:51:49;;;;;;;2.22;0.32;;;10.40;99.90;;;;;;5387765;26;20015;-74
2024/04/10 12:54:15;;;;;;;0.70;0.20;;;10.60;99.90;;;;;;5388661;26;20538;-75